Observation data for Brownfield on 10/18/2019      Previous  Date       Current Mesonet Observations  Soil Data  Daily Summary Page  Observations in Plain Language
KBWS 180500Z 16012KT 16/08 A2987 RMK A01 T01580080  RH  061%=      5-min Rain = 0
KBWS 180505Z 16012KT 16/08 A2987 RMK A01 T01580081  RH  062%=      5-min Rain = 0
KBWS 180510Z 16011KT 16/08 A2987 RMK A01 T01570082  RH  063%=      5-min Rain = 0
KBWS 180515Z 17010KT 16/08 A2987 RMK A01 T01550082  RH  063%=      5-min Rain = 0
KBWS 180520Z 17010KT 15/08 A2987 RMK A01 T01530082  RH  065%=      5-min Rain = 0
KBWS 180525Z 17010KT 15/08 A2987 RMK A01 T01500083  RH  066%=      5-min Rain = 0
KBWS 180530Z 17010KT 15/08 A2986 RMK A01 T01480083  RH  067%=      5-min Rain = 0
KBWS 180535Z 17010KT 15/08 A2986 RMK A01 T01480084  RH  067%=      5-min Rain = 0
KBWS 180540Z 17010KT 15/08 A2986 RMK A01 T01480084  RH  068%=      5-min Rain = 0
KBWS 180545Z 17010KT 15/09 A2986 RMK A01 T01470085  RH  068%=      5-min Rain = 0
KBWS 180550Z 17010KT 15/09 A2986 RMK A01 T01470085  RH  068%=      5-min Rain = 0
KBWS 180555Z 17010KT 15/09 A2986 RMK A01 T01470086  RH  069%=      5-min Rain = 0
KBWS 180600Z 17010KT 15/09 A2986 RMK A01 T01470086  RH  069%=      5-min Rain = 0
KBWS 180605Z 17010KT 15/09 A2986 RMK A01 T01460087  RH  069%=      5-min Rain = 0
KBWS 180610Z 17010KT 15/09 A2986 RMK A01 T01460087  RH  070%=      5-min Rain = 0
KBWS 180615Z 17011KT 15/09 A2986 RMK A01 T01470088  RH  070%=      5-min Rain = 0
KBWS 180620Z 17011KT 15/09 A2986 RMK A01 T01480088  RH  069%=      5-min Rain = 0
KBWS 180625Z 17011KT 15/09 A2986 RMK A01 T01490088  RH  069%=      5-min Rain = 0
KBWS 180630Z 17011KT 15/09 A2986 RMK A01 T01480088  RH  069%=      5-min Rain = 0
KBWS 180635Z 17011KT 15/09 A2986 RMK A01 T01470088  RH  070%=      5-min Rain = 0
KBWS 180640Z 18010KT 15/09 A2986 RMK A01 T01470088  RH  070%=      5-min Rain = 0
KBWS 180645Z 18011KT 15/09 A2986 RMK A01 T01490089  RH  069%=      5-min Rain = 0
KBWS 180650Z 18013KT 15/09 A2985 RMK A01 T01510089  RH  068%=      5-min Rain = 0
KBWS 180655Z 17012KT 15/09 A2985 RMK A01 T01510089  RH  069%=      5-min Rain = 0
KBWS 180700Z 17011KT 15/09 A2985 RMK A01 T01490089  RH  069%=      5-min Rain = 0
KBWS 180705Z 17011KT 15/09 A2985 RMK A01 T01480089  RH  070%=      5-min Rain = 0
KBWS 180710Z 18011KT 15/09 A2985 RMK A01 T01470089  RH  070%=      5-min Rain = 0
KBWS 180715Z 18010KT 15/09 A2985 RMK A01 T01450089  RH  071%=      5-min Rain = 0
KBWS 180720Z 18010KT 14/09 A2985 RMK A01 T01440088  RH  071%=      5-min Rain = 0
KBWS 180725Z 18009KT 14/09 A2985 RMK A01 T01420088  RH  072%=      5-min Rain = 0
KBWS 180730Z 18008KT 14/09 A2985 RMK A01 T01400088  RH  073%=      5-min Rain = 0
KBWS 180735Z 18008KT 14/09 A2985 RMK A01 T01370087  RH  074%=      5-min Rain = 0
KBWS 180740Z 18008KT 14/09 A2985 RMK A01 T01360087  RH  074%=      5-min Rain = 0
KBWS 180745Z 18008KT 14/09 A2985 RMK A01 T01350087  RH  075%=      5-min Rain = 0
KBWS 180750Z 18009KT 13/09 A2985 RMK A01 T01340087  RH  076%=      5-min Rain = 0
KBWS 180755Z 17008KT 13/09 A2985 RMK A01 T01330087  RH  076%=      5-min Rain = 0
KBWS 180800Z 17008KT 13/09 A2984 RMK A01 T01310087  RH  077%=      5-min Rain = 0
KBWS 180805Z 17008KT 13/09 A2984 RMK A01 T01290087  RH  078%=      5-min Rain = 0
KBWS 180810Z 17008KT 13/09 A2984 RMK A01 T01270087  RH  079%=      5-min Rain = 0
KBWS 180815Z 17008KT 13/09 A2984 RMK A01 T01250087  RH  080%=      5-min Rain = 0
KBWS 180820Z 17008KT 12/09 A2984 RMK A01 T01240087  RH  080%=      5-min Rain = 0
KBWS 180825Z 16008KT 12/09 A2984 RMK A01 T01240087  RH  081%=      5-min Rain = 0
KBWS 180830Z 16007KT 12/09 A2983 RMK A01 T01210087  RH  082%=      5-min Rain = 0
KBWS 180835Z 17007KT 12/09 A2983 RMK A01 T01210088  RH  082%=      5-min Rain = 0
KBWS 180840Z 18008KT 12/09 A2983 RMK A01 T01220088  RH  082%=      5-min Rain = 0
KBWS 180845Z 18008KT 12/09 A2983 RMK A01 T01220089  RH  083%=      5-min Rain = 0
KBWS 180850Z 19008KT 12/09 A2983 RMK A01 T01220089  RH  083%=      5-min Rain = 0
KBWS 180855Z 19008KT 12/09 A2983 RMK A01 T01230090  RH  083%=      5-min Rain = 0
KBWS 180900Z 18008KT 12/09 A2983 RMK A01 T01230090  RH  083%=      5-min Rain = 0
KBWS 180905Z 18008KT 12/09 A2983 RMK A01 T01220090  RH  083%=      5-min Rain = 0
KBWS 180910Z 19008KT 12/09 A2983 RMK A01 T01220090  RH  083%=      5-min Rain = 0
KBWS 180915Z 19007KT 12/09 A2983 RMK A01 T01220090  RH  084%=      5-min Rain = 0
KBWS 180920Z 20007KT 12/09 A2983 RMK A01 T01220091  RH  084%=      5-min Rain = 0
KBWS 180925Z 20007KT 12/09 A2983 RMK A01 T01220091  RH  084%=      5-min Rain = 0
KBWS 180930Z 19007KT 12/09 A2983 RMK A01 T01220091  RH  084%=      5-min Rain = 0
KBWS 180935Z 19007KT 12/09 A2983 RMK A01 T01220092  RH  084%=      5-min Rain = 0
KBWS 180940Z 18007KT 12/09 A2983 RMK A01 T01220092  RH  085%=      5-min Rain = 0
KBWS 180945Z 18007KT 12/09 A2983 RMK A01 T01210092  RH  085%=      5-min Rain = 0
KBWS 180950Z 18007KT 12/09 A2982 RMK A01 T01190091  RH  086%=      5-min Rain = 0
KBWS 180955Z 18007KT 12/09 A2982 RMK A01 T01180091  RH  086%=      5-min Rain = 0
KBWS 181000Z 18007KT 12/09 A2982 RMK A01 T01180091  RH  087%=      5-min Rain = 0
KBWS 181005Z 18008KT 12/09 A2982 RMK A01 T01180092  RH  087%=      5-min Rain = 0
KBWS 181010Z 18007KT 12/09 A2982 RMK A01 T01170091  RH  087%=      5-min Rain = 0
KBWS 181015Z 18007KT 12/09 A2982 RMK A01 T01170091  RH  087%=      5-min Rain = 0
KBWS 181020Z 19007KT 12/09 A2982 RMK A01 T01150091  RH  088%=      5-min Rain = 0
KBWS 181025Z 19007KT 12/09 A2982 RMK A01 T01150091  RH  088%=      5-min Rain = 0
KBWS 181030Z 19007KT 11/09 A2982 RMK A01 T01140091  RH  088%=      5-min Rain = 0
KBWS 181035Z 19007KT 11/09 A2982 RMK A01 T01140091  RH  088%=      5-min Rain = 0
KBWS 181040Z 19008KT 12/09 A2982 RMK A01 T01150092  RH  088%=      5-min Rain = 0
KBWS 181045Z 19007KT 12/09 A2982 RMK A01 T01160092  RH  088%=      5-min Rain = 0
KBWS 181050Z 19007KT 12/09 A2982 RMK A01 T01160092  RH  088%=      5-min Rain = 0
KBWS 181055Z 19007KT 12/09 A2982 RMK A01 T01160092  RH  088%=      5-min Rain = 0
KBWS 181100Z 19007KT 11/09 A2982 RMK A01 T01140091  RH  089%=      5-min Rain = 0
KBWS 181105Z 19008KT 11/09 A2982 RMK A01 T01140092  RH  089%=      5-min Rain = 0
KBWS 181110Z 19008KT 12/09 A2982 RMK A01 T01150092  RH  088%=      5-min Rain = 0
KBWS 181115Z 20008KT 12/09 A2982 RMK A01 T01150092  RH  088%=      5-min Rain = 0
KBWS 181120Z 20007KT 11/09 A2982 RMK A01 T01140091  RH  089%=      5-min Rain = 0
KBWS 181125Z 19007KT 11/09 A2982 RMK A01 T01130091  RH  089%=      5-min Rain = 0
KBWS 181130Z 18007KT 11/09 A2981 RMK A01 T01140092  RH  089%=      5-min Rain = 0
KBWS 181135Z 18008KT 12/09 A2981 RMK A01 T01150092  RH  089%=      5-min Rain = 0
KBWS 181140Z 19007KT 12/09 A2981 RMK A01 T01150092  RH  089%=      5-min Rain = 0
KBWS 181145Z 18008KT 12/09 A2981 RMK A01 T01150093  RH  089%=      5-min Rain = 0
KBWS 181150Z 18008KT 12/09 A2981 RMK A01 T01160093  RH  089%=      5-min Rain = 0
KBWS 181155Z 19009KT 12/09 A2981 RMK A01 T01160093  RH  089%=      5-min Rain = 0
KBWS 181200Z 18009KT 12/09 A2981 RMK A01 T01160093  RH  088%=      5-min Rain = 0
KBWS 181205Z 18009KT 12/09 A2981 RMK A01 T01160093  RH  088%=      5-min Rain = 0
KBWS 181210Z 18008KT 12/09 A2981 RMK A01 T01160093  RH  088%=      5-min Rain = 0
KBWS 181215Z 18010KT 12/09 A2981 RMK A01 T01160093  RH  088%=      5-min Rain = 0
KBWS 181220Z 18009KT 12/09 A2981 RMK A01 T01160093  RH  088%=      5-min Rain = 0
KBWS 181225Z 18009KT 12/09 A2981 RMK A01 T01160092  RH  088%=      5-min Rain = 0
KBWS 181230Z 19009KT 12/09 A2981 RMK A01 T01160092  RH  088%=      5-min Rain = 0
KBWS 181235Z 19009KT 12/09 A2981 RMK A01 T01170093  RH  088%=      5-min Rain = 0
KBWS 181240Z 19009KT 12/09 A2981 RMK A01 T01180092  RH  087%=      5-min Rain = 0
KBWS 181245Z 19009KT 12/09 A2981 RMK A01 T01170092  RH  087%=      5-min Rain = 0
KBWS 181250Z 19009KT 12/09 A2981 RMK A01 T01170092  RH  087%=      5-min Rain = 0
KBWS 181255Z 19008KT 12/09 A2981 RMK A01 T01170092  RH  087%=      5-min Rain = 0
KBWS 181300Z 19008KT 12/09 A2981 RMK A01 T01170091  RH  087%=      5-min Rain = 0
KBWS 181305Z 19008KT 12/09 A2981 RMK A01 T01160091  RH  087%=      5-min Rain = 0
KBWS 181310Z 19008KT 12/09 A2981 RMK A01 T01170091  RH  087%=      5-min Rain = 0
KBWS 181315Z 19009KT 12/09 A2981 RMK A01 T01180092  RH  087%=      5-min Rain = 0
KBWS 181320Z 19009KT 12/09 A2981 RMK A01 T01190092  RH  086%=      5-min Rain = 0
KBWS 181325Z 19008KT 12/09 A2981 RMK A01 T01200092  RH  086%=      5-min Rain = 0
KBWS 181330Z 19007KT 12/09 A2981 RMK A01 T01220093  RH  085%=      5-min Rain = 0
KBWS 181335Z 19007KT 12/09 A2981 RMK A01 T01230093  RH  084%=      5-min Rain = 0
KBWS 181340Z 19008KT 13/09 A2981 RMK A01 T01250093  RH  084%=      5-min Rain = 0
KBWS 181345Z 20008KT 13/09 A2981 RMK A01 T01260094  RH  083%=      5-min Rain = 0
KBWS 181350Z 19008KT 13/09 A2981 RMK A01 T01280094  RH  082%=      5-min Rain = 0
KBWS 181355Z 19010KT 13/10 A2982 RMK A01 T01310095  RH  081%=      5-min Rain = 0
KBWS 181400Z 19010KT 13/09 A2982 RMK A01 T01330094  RH  080%=      5-min Rain = 0
KBWS 181405Z 19011KT 14/10 A2982 RMK A01 T01350095  RH  079%=      5-min Rain = 0
KBWS 181410Z 20011KT 14/10 A2982 RMK A01 T01380095  RH  078%=      5-min Rain = 0
KBWS 181415Z 19011KT 14/10 A2982 RMK A01 T01390095  RH  077%=      5-min Rain = 0
KBWS 181420Z 19013KT 14/10 A2981 RMK A01 T01410095  RH  076%=      5-min Rain = 0
KBWS 181425Z 19012KT 14/10 A2981 RMK A01 T01420095  RH  076%=      5-min Rain = 0
KBWS 181430Z 20012G17KT 14/10 A2981 RMK A01 T01440096  RH  075%=      5-min Rain = 0
KBWS 181435Z 20011KT 15/10 A2981 RMK A01 T01460096  RH  074%=      5-min Rain = 0
KBWS 181440Z 19012KT 15/10 A2981 RMK A01 T01500096  RH  073%=      5-min Rain = 0
KBWS 181445Z 19012KT 15/10 A2981 RMK A01 T01540097  RH  071%=      5-min Rain = 0
KBWS 181450Z 19011KT 16/10 A2981 RMK A01 T01570098  RH  070%=      5-min Rain = 0
KBWS 181455Z 19012KT 16/10 A2981 RMK A01 T01610097  RH  068%=      5-min Rain = 0
KBWS 181500Z 19011KT 16/10 A2981 RMK A01 T01640098  RH  067%=      5-min Rain = 0
KBWS 181505Z 19013KT 17/10 A2981 RMK A01 T01670097  RH  065%=      5-min Rain = 0
KBWS 181510Z 19012KT 17/10 A298 RMK A01 T01710098  RH  064%=      5-min Rain = 0
KBWS 181515Z 19013KT 18/10 A298 RMK A01 T01750098  RH  062%=      5-min Rain = 0
KBWS 181520Z 19013KT 18/10 A2981 RMK A01 T01770098  RH  061%=      5-min Rain = 0
KBWS 181525Z 19013KT 18/10 A2981 RMK A01 T01820098  RH  060%=      5-min Rain = 0
KBWS 181530Z 19013KT 19/10 A2981 RMK A01 T01850099  RH  059%=      5-min Rain = 0
KBWS 181535Z 20013G18KT 19/10 A2981 RMK A01 T01890100  RH  058%=      5-min Rain = 0
KBWS 181540Z 20014KT 19/10 A298 RMK A01 T01920099  RH  057%=      5-min Rain = 0
KBWS 181545Z 20013G18KT 20/10 A298 RMK A01 T01980101  RH  055%=      5-min Rain = 0
KBWS 181550Z 20013G18KT 20/10 A298 RMK A01 T02000101  RH  055%=      5-min Rain = 0
KBWS 181555Z 20014KT 20/10 A298 RMK A01 T02020101  RH  054%=      5-min Rain = 0
KBWS 181600Z 20013G18KT 21/10 A298 RMK A01 T02070103  RH  053%=      5-min Rain = 0
KBWS 181605Z 20016KT 21/10 A2979 RMK A01 T02080101  RH  052%=      5-min Rain = 0
KBWS 181610Z 20015KT 21/10 A2979 RMK A01 T02110103  RH  052%=      5-min Rain = 0
KBWS 181615Z 20014KT 21/10 A2979 RMK A01 T02140104  RH  051%=      5-min Rain = 0
KBWS 181620Z 20015G21KT 22/10 A2979 RMK A01 T02180104  RH  050%=      5-min Rain = 0
KBWS 181625Z 20015KT 22/10 A2979 RMK A01 T02170104  RH  050%=      5-min Rain = 0
KBWS 181630Z 20013KT 22/11 A2979 RMK A01 T02210106  RH  050%=      5-min Rain = 0
KBWS 181635Z 21013G19KT 23/11 A2979 RMK A01 T02290109  RH  048%=      5-min Rain = 0
KBWS 181640Z 21014KT 24/11 A2979 RMK A01 T02360109  RH  046%=      5-min Rain = 0
KBWS 181645Z 22015KT 23/11 A2979 RMK A01 T02330107  RH  047%=      5-min Rain = 0
KBWS 181650Z 21014G19KT 24/11 A2978 RMK A01 T02370110  RH  046%=      5-min Rain = 0
KBWS 181655Z 22015G20KT 24/11 A2978 RMK A01 T02420110  RH  045%=      5-min Rain = 0
KBWS 181700Z 21016KT 25/11 A2978 RMK A01 T02450110  RH  044%=      5-min Rain = 0
KBWS 181705Z 21016KT 25/11 A2978 RMK A01 T02470111  RH  044%=      5-min Rain = 0
KBWS 181710Z 21015KT 25/11 A2978 RMK A01 T02520112  RH  043%=      5-min Rain = 0
KBWS 181715Z 21014KT 25/11 A2978 RMK A01 T02520111  RH  043%=      5-min Rain = 0
KBWS 181720Z 22013G18KT 26/11 A2977 RMK A01 T02580114  RH  042%=      5-min Rain = 0
KBWS 181725Z 21013G18KT 26/12 A2977 RMK A01 T02630115  RH  041%=      5-min Rain = 0
KBWS 181730Z 21014G20KT 27/12 A2977 RMK A01 T02680116  RH  040%=      5-min Rain = 0
KBWS 181735Z 21013G19KT 27/12 A2976 RMK A01 T02700116  RH  040%=      5-min Rain = 0
KBWS 181740Z 23018G25KT 28/11 A2976 RMK A01 T02780111  RH  037%=      5-min Rain = 0
KBWS 181745Z 24019G26KT 28/11 A2976 RMK A01 T02770105  RH  035%=      5-min Rain = 0
KBWS 181750Z 24018G25KT 28/10 A2976 RMK A01 T02780101  RH  034%=      5-min Rain = 0
KBWS 181755Z 24016G22KT 28/10 A2975 RMK A01 T02800103  RH  034%=      5-min Rain = 0
KBWS 181800Z 23018G23KT 28/10 A2975 RMK A01 T02800102  RH  034%=      5-min Rain = 0
KBWS 181805Z 25018KT 28/10 A2975 RMK A01 T02800102  RH  034%=      5-min Rain = 0
KBWS 181810Z 24017G23KT 28/10 A2975 RMK A01 T02830100  RH  033%=      5-min Rain = 0
KBWS 181815Z 24019G24KT 28/10 A2975 RMK A01 T02820096  RH  032%=      5-min Rain = 0
KBWS 181820Z 25017KT 28/10 A2974 RMK A01 T02810101  RH  034%=      5-min Rain = 0
KBWS 181825Z 24018KT 28/10 A2974 RMK A01 T02820101  RH  033%=      5-min Rain = 0
KBWS 181830Z 24015G22KT 28/10 A2974 RMK A01 T02840104  RH  034%=      5-min Rain = 0
KBWS 181835Z 24015G22KT 29/10 A2973 RMK A01 T02860102  RH  033%=      5-min Rain = 0
KBWS 181840Z 23014G23KT 29/10 A2973 RMK A01 T02900102  RH  032%=      5-min Rain = 0
KBWS 181845Z 23018G26KT 29/09 A2972 RMK A01 T02890092  RH  030%=      5-min Rain = 0
KBWS 181850Z 23019G28KT 29/09 A2972 RMK A01 T02890088  RH  029%=      5-min Rain = 0
KBWS 181855Z 23019G26KT 29/08 A2972 RMK A01 T02890077  RH  027%=      5-min Rain = 0
KBWS 181900Z 25019G26KT 29/07 A2971 RMK A01 T02920074  RH  026%=      5-min Rain = 0
KBWS 181905Z 23019G24KT 29/08 A2971 RMK A01 T02930075  RH  026%=      5-min Rain = 0
KBWS 181910Z 24018G24KT 29/08 A2971 RMK A01 T02940076  RH  026%=      5-min Rain = 0
KBWS 181915Z 23017G22KT 29/08 A2971 RMK A01 T02940078  RH  026%=      5-min Rain = 0
KBWS 181920Z 24019G25KT 29/08 A297 RMK A01 T02940076  RH  026%=      5-min Rain = 0
KBWS 181925Z 22020G26KT 29/08 A297 RMK A01 T02930075  RH  026%=      5-min Rain = 0
KBWS 181930Z 23019G25KT 30/08 A297 RMK A01 T02950080  RH  027%=      5-min Rain = 0
KBWS 181935Z 22019G24KT 29/07 A2969 RMK A01 T02930073  RH  026%=      5-min Rain = 0
KBWS 181940Z 22019G24KT 30/06 A2969 RMK A01 T02950062  RH  024%=      5-min Rain = 0
KBWS 181945Z 22020G26KT 29/06 A2969 RMK A01 T02940059  RH  023%=      5-min Rain = 0
KBWS 181950Z 24017G25KT 30/07 A2969 RMK A01 T02950067  RH  024%=      5-min Rain = 0
KBWS 181955Z 24017G23KT 30/06 A2969 RMK A01 T02960063  RH  024%=      5-min Rain = 0
KBWS 182000Z 23020G26KT 30/06 A2969 RMK A01 T02960059  RH  023%=      5-min Rain = 0
KBWS 182005Z 23017G24KT 30/06 A2969 RMK A01 T02950063  RH  024%=      5-min Rain = 0
KBWS 182010Z 23017G26KT 30/08 A2968 RMK A01 T02960077  RH  026%=      5-min Rain = 0
KBWS 182015Z 23018G25KT 29/07 A2968 RMK A01 T02940074  RH  026%=      5-min Rain = 0
KBWS 182020Z 23019G27KT 30/07 A2968 RMK A01 T02950073  RH  025%=      5-min Rain = 0
KBWS 182025Z 24020G27KT 30/07 A2968 RMK A01 T02950069  RH  025%=      5-min Rain = 0
KBWS 182030Z 24020G27KT 29/07 A2968 RMK A01 T02940070  RH  025%=      5-min Rain = 0
KBWS 182035Z 24020G25KT 29/07 A2968 RMK A01 T02930072  RH  026%=      5-min Rain = 0
KBWS 182040Z 24018G24KT 29/07 A2968 RMK A01 T02930072  RH  026%=      5-min Rain = 0
KBWS 182045Z 23020G28KT 29/07 A2968 RMK A01 T02920072  RH  026%=      5-min Rain = 0
KBWS 182050Z 25018G25KT 29/07 A2968 RMK A01 T02920071  RH  025%=      5-min Rain = 0
KBWS 182055Z 24018G25KT 29/07 A2968 RMK A01 T02930073  RH  026%=      5-min Rain = 0
KBWS 182100Z 23016G22KT 29/08 A2968 RMK A01 T02930076  RH  026%=      5-min Rain = 0
KBWS 182105Z 23018G24KT 29/07 A2968 RMK A01 T02930074  RH  026%=      5-min Rain = 0
KBWS 182110Z 23018G25KT 29/08 A2968 RMK A01 T02870077  RH  027%=      5-min Rain = 0
KBWS 182115Z 24015G22KT 30/08 A2967 RMK A01 T02950077  RH  026%=      5-min Rain = 0
KBWS 182120Z 24013G19KT 29/08 A2967 RMK A01 T02940080  RH  027%=      5-min Rain = 0
KBWS 182125Z 25019G30KT 29/08 A2967 RMK A01 T02940078  RH  027%=      5-min Rain = 0
KBWS 182130Z 24018G24KT 29/07 A2967 RMK A01 T02920069  RH  025%=      5-min Rain = 0
KBWS 182135Z 24019G27KT 29/06 A2967 RMK A01 T02930062  RH  024%=      5-min Rain = 0
KBWS 182140Z 25017G25KT 29/06 A2967 RMK A01 T02940062  RH  024%=      5-min Rain = 0
KBWS 182145Z 25018G25KT 29/07 A2967 RMK A01 T02920067  RH  025%=      5-min Rain = 0
KBWS 182150Z 23020G28KT 29/07 A2967 RMK A01 T02910069  RH  025%=      5-min Rain = 0
KBWS 182155Z 25017G25KT 29/07 A2967 RMK A01 T02940068  RH  025%=      5-min Rain = 0
KBWS 182200Z 24016G21KT 29/07 A2967 RMK A01 T02930068  RH  025%=      5-min Rain = 0
KBWS 182205Z 24019G24KT 29/06 A2967 RMK A01 T02900063  RH  024%=      5-min Rain = 0
KBWS 182210Z 24016G23KT 29/07 A2967 RMK A01 T02900065  RH  025%=      5-min Rain = 0
KBWS 182215Z 24019G27KT 29/07 A2967 RMK A01 T02880065  RH  025%=      5-min Rain = 0
KBWS 182220Z 25015G22KT 29/07 A2967 RMK A01 T02890066  RH  025%=      5-min Rain = 0
KBWS 182225Z 25017G24KT 29/06 A2967 RMK A01 T02900064  RH  025%=      5-min Rain = 0
KBWS 182230Z 24016G21KT 29/06 A2967 RMK A01 T02880061  RH  024%=      5-min Rain = 0
KBWS 182235Z 23016G22KT 29/06 A2967 RMK A01 T02880060  RH  024%=      5-min Rain = 0
KBWS 182240Z 24012G21KT 29/06 A2967 RMK A01 T02860059  RH  024%=      5-min Rain = 0
KBWS 182245Z 25018G25KT 29/06 A2967 RMK A01 T02880055  RH  023%=      5-min Rain = 0
KBWS 182250Z 24017G22KT 29/05 A2967 RMK A01 T02870053  RH  023%=      5-min Rain = 0
KBWS 182255Z 24019G25KT 29/05 A2967 RMK A01 T02860051  RH  023%=      5-min Rain = 0
KBWS 182300Z 24016G23KT 29/05 A2967 RMK A01 T02850050  RH  023%=      5-min Rain = 0
KBWS 182305Z 24016G21KT 28/05 A2967 RMK A01 T02830051  RH  023%=      5-min Rain = 0
KBWS 182310Z 25017G23KT 28/05 A2968 RMK A01 T02830049  RH  023%=      5-min Rain = 0
KBWS 182315Z 24017G23KT 28/05 A2968 RMK A01 T02820047  RH  023%=      5-min Rain = 0
KBWS 182320Z 24015G21KT 28/05 A2968 RMK A01 T02800047  RH  023%=      5-min Rain = 0
KBWS 182325Z 25017G22KT 28/05 A2968 RMK A01 T02790049  RH  023%=      5-min Rain = 0
KBWS 182330Z 24016G21KT 28/05 A2968 RMK A01 T02770050  RH  024%=      5-min Rain = 0
KBWS 182335Z 24017G22KT 28/05 A2968 RMK A01 T02750047  RH  024%=      5-min Rain = 0
KBWS 182340Z 24016G23KT 27/05 A2968 RMK A01 T02730048  RH  024%=      5-min Rain = 0
KBWS 182345Z 24016G23KT 27/05 A2968 RMK A01 T02730051  RH  025%=      5-min Rain = 0
KBWS 182350Z 24015G20KT 27/05 A2968 RMK A01 T02690051  RH  025%=      5-min Rain = 0
KBWS 182355Z 24014KT 27/05 A2969 RMK A01 T02650051  RH  026%=      5-min Rain = 0
KBWS 190000Z 24014KT 26/05 A2969 RMK A01 T02630051  RH  026%=      5-min Rain = 0
KBWS 190005Z 24013KT 26/05 A2969 RMK A01 T02620051  RH  026%=      5-min Rain = 0
KBWS 190010Z 24013KT 26/05 A2969 RMK A01 T02590051  RH  027%=      5-min Rain = 0
KBWS 190015Z 24013KT 26/05 A2969 RMK A01 T02590050  RH  027%=      5-min Rain = 0
KBWS 190020Z 23012KT 26/05 A2969 RMK A01 T02570049  RH  027%=      5-min Rain = 0
KBWS 190025Z 23011KT 25/05 A2969 RMK A01 T02540050  RH  027%=      5-min Rain = 0
KBWS 190030Z 23012KT 25/05 A2969 RMK A01 T02520049  RH  028%=      5-min Rain = 0
KBWS 190035Z 23011KT 25/05 A297 RMK A01 T02510049  RH  028%=      5-min Rain = 0
KBWS 190040Z 24011KT 25/05 A297 RMK A01 T02490048  RH  028%=      5-min Rain = 0
KBWS 190045Z 24010KT 25/05 A297 RMK A01 T02480048  RH  028%=      5-min Rain = 0
KBWS 190050Z 25010KT 25/05 A2971 RMK A01 T02480048  RH  028%=      5-min Rain = 0
KBWS 190055Z 28018G32KT 25/05 A2972 RMK A01 T02470051  RH  029%=      5-min Rain = 0
KBWS 190100Z 28021G28KT 24/06 A2973 RMK A01 T02390062  RH  033%=      5-min Rain = 0
KBWS 190105Z 29017G22KT 23/07 A2973 RMK A01 T02280072  RH  038%=      5-min Rain = 0
KBWS 190110Z 30016G21KT 22/08 A2973 RMK A01 T02210077  RH  041%=      5-min Rain = 0
KBWS 190115Z 30017G23KT 22/08 A2974 RMK A01 T02180076  RH  041%=      5-min Rain = 0
KBWS 190120Z 30015G22KT 22/07 A2974 RMK A01 T02180074  RH  040%=      5-min Rain = 0
KBWS 190125Z 30015KT 22/07 A2975 RMK A01 T02170074  RH  041%=      5-min Rain = 0
KBWS 190130Z 29013G18KT 21/07 A2975 RMK A01 T02140074  RH  041%=      5-min Rain = 0
KBWS 190135Z 29014G20KT 22/07 A2976 RMK A01 T02150072  RH  041%=      5-min Rain = 0
KBWS 190140Z 29015G22KT 22/07 A2976 RMK A01 T02150071  RH  040%=      5-min Rain = 0
KBWS 190145Z 29016G21KT 22/07 A2976 RMK A01 T02160066  RH  039%=      5-min Rain = 0
KBWS 190150Z 30012KT 21/07 A2976 RMK A01 T02130065  RH  039%=      5-min Rain = 0
KBWS 190155Z 30012KT 21/06 A2976 RMK A01 T02100064  RH  040%=      5-min Rain = 0
KBWS 190200Z 29012KT 21/06 A2976 RMK A01 T02080063  RH  040%=      5-min Rain = 0
KBWS 190205Z 29011KT 21/06 A2976 RMK A01 T02050063  RH  041%=      5-min Rain = 0
KBWS 190210Z 29012KT 20/06 A2976 RMK A01 T02030061  RH  040%=      5-min Rain = 0
KBWS 190215Z 28011G16KT 20/06 A2976 RMK A01 T02040060  RH  040%=      5-min Rain = 0
KBWS 190220Z 28011KT 20/06 A2977 RMK A01 T02020060  RH  041%=      5-min Rain = 0
KBWS 190225Z 29010KT 20/06 A2977 RMK A01 T02000061  RH  041%=      5-min Rain = 0
KBWS 190230Z 29009KT 20/06 A2977 RMK A01 T01980061  RH  042%=      5-min Rain = 0
KBWS 190235Z 28008KT 20/06 A2976 RMK A01 T01950062  RH  043%=      5-min Rain = 0
KBWS 190240Z 28008KT 19/06 A2977 RMK A01 T01930063  RH  044%=      5-min Rain = 0
KBWS 190245Z 28007KT 19/06 A2977 RMK A01 T01910064  RH  045%=      5-min Rain = 0
KBWS 190250Z 27007KT 19/06 A2977 RMK A01 T01860064  RH  046%=      5-min Rain = 0
KBWS 190255Z 26006KT 18/06 A2976 RMK A01 T01840064  RH  046%=      5-min Rain = 0
KBWS 190300Z 26007KT 18/06 A2976 RMK A01 T01810064  RH  048%=      5-min Rain = 0
KBWS 190305Z 26007KT 18/07 A2976 RMK A01 T01770066  RH  049%=      5-min Rain = 0
KBWS 190310Z 25007KT 17/07 A2977 RMK A01 T01720066  RH  051%=      5-min Rain = 0
KBWS 190315Z 25008KT 17/07 A2977 RMK A01 T01690065  RH  051%=      5-min Rain = 0
KBWS 190320Z 25008KT 17/07 A2977 RMK A01 T01670066  RH  053%=      5-min Rain = 0
KBWS 190325Z 25008KT 17/07 A2977 RMK A01 T01670066  RH  053%=      5-min Rain = 0
KBWS 190330Z 25009KT 17/07 A2977 RMK A01 T01670066  RH  053%=      5-min Rain = 0
KBWS 190335Z 25008KT 17/07 A2978 RMK A01 T01650066  RH  053%=      5-min Rain = 0
KBWS 190340Z 25009KT 17/07 A2978 RMK A01 T01660066  RH  053%=      5-min Rain = 0
KBWS 190345Z 25008KT 17/07 A2978 RMK A01 T01670066  RH  052%=      5-min Rain = 0
KBWS 190350Z 25009KT 17/07 A2978 RMK A01 T01660065  RH  053%=      5-min Rain = 0
KBWS 190355Z 25009KT 17/07 A2978 RMK A01 T01650065  RH  053%=      5-min Rain = 0
KBWS 190400Z 25009KT 17/07 A2978 RMK A01 T01650065  RH  053%=      5-min Rain = 0
KBWS 190405Z 26008KT 16/07 A2978 RMK A01 T01640065  RH  053%=      5-min Rain = 0
KBWS 190410Z 26009KT 16/07 A2978 RMK A01 T01630065  RH  054%=      5-min Rain = 0
KBWS 190415Z 26009KT 16/07 A2978 RMK A01 T01630065  RH  053%=      5-min Rain = 0
KBWS 190420Z 26009KT 16/07 A2978 RMK A01 T01620065  RH  054%=      5-min Rain = 0
KBWS 190425Z 26009KT 16/07 A2978 RMK A01 T01600065  RH  054%=      5-min Rain = 0
KBWS 190430Z 26009KT 16/06 A2978 RMK A01 T01580064  RH  055%=      5-min Rain = 0
KBWS 190435Z 26009KT 16/06 A2978 RMK A01 T01570064  RH  055%=      5-min Rain = 0
KBWS 190440Z 26009KT 16/07 A2979 RMK A01 T01570065  RH  056%=      5-min Rain = 0
KBWS 190445Z 26010KT 16/07 A2979 RMK A01 T01560065  RH  056%=      5-min Rain = 0
KBWS 190450Z 26010KT 15/07 A2979 RMK A01 T01540065  RH  056%=      5-min Rain = 0
KBWS 190455Z 25008KT 15/06 A2979 RMK A01 T01520064  RH  057%=      5-min Rain = 0

Page generated in 0.0092 seconds.